logo
Rechercher aéroport 
image banner adimage banner adimage banner ad
image banner ad

OLKA - Kleyate/Rene Mouawad Airport

Situé à Tripoli, Lebanon

ICAO - OLKA, IATA - KYE

Données fournies par Airmate  

Information générale

Coordonnées: N34°35'10" E36°0'10"
Élévation : 22 feet MSL.
Variation magnétique : 5° East
Voir autres Aéroports à North Governorate

Données opérationnelles

Special qualification required
Heure actuelle UTC:
Heure actuelle locale:
Météo à : - ( 0 km )
METAR: KSQL 270347Z 30015KT 10SM CLR 15/07 A3002 RMK LAST
Voir NOTAMs / SUP AIP / TFR affectant cet aéroport [VIEW]
Fréquences de communication: [VIEW]

Pistes:

Identifiant RWYQFULongueur (ft)Largeur (ft)SurfaceLDA (ft)
0663°9842148CON
24243°9842148CON

Coordonnées de l'aéroport

Adresse: Tripoli Lebanon

Vue satellite de OLKA